Time;durP1;ratioP1;P1;durP2;ratioP2;P2;SDS_P1;SDS_P2;PMS_P1;PMS_P2;Temp;Humidity;BMP_temperature;BMP_pressure;BME280_temperature;BME280_humidity;BME280_pressure;Samples;Min_cycle;Max_cycle;Signal;HPM_P1;HPM_P2
2022/10/28 00:01:10;;;;;;;8.00;3.80;;;17.90;81.20;;;;;;5052441;28;20376;-68
2022/10/28 00:03:41;;;;;;;6.25;4.10;;;17.80;81.40;;;;;;5051650;28;20415;-68
2022/10/28 00:06:28;;;;;;;6.38;3.60;;;17.80;81.60;;;;;;5052511;28;20029;-68
2022/10/28 00:08:54;;;;;;;6.75;3.95;;;17.80;81.50;;;;;;5052391;28;20399;-67
2022/10/28 00:11:24;;;;;;;8.00;3.90;;;17.80;81.70;;;;;;5052537;28;20032;-68
2022/10/28 00:13:52;;;;;;;6.93;4.18;;;17.80;81.80;;;;;;5052529;28;20025;-68
2022/10/28 00:16:20;;;;;;;8.00;3.80;;;17.80;81.80;;;;;;5052302;28;20052;-67
2022/10/28 00:18:46;;;;;;;9.52;4.13;;;17.70;81.80;;;;;;5052392;28;20024;-68
2022/10/28 00:21:14;;;;;;;7.10;4.15;;;17.80;81.90;;;;;;5052460;28;20512;-67
2022/10/28 00:23:40;;;;;;;5.47;3.80;;;17.80;81.90;;;;;;5052397;28;20061;-68
2022/10/28 00:26:18;;;;;;;7.43;4.30;;;17.70;82.00;;;;;;5052265;28;20021;-68
2022/10/28 00:28:47;;;;;;;6.50;4.53;;;17.70;82.00;;;;;;5052112;28;20387;-68
2022/10/28 00:31:14;;;;;;;6.72;4.20;;;17.70;82.20;;;;;;5052089;28;20041;-68
2022/10/28 00:33:40;;;;;;;7.22;4.20;;;17.70;82.30;;;;;;5051927;28;20426;-67
2022/10/28 00:36:10;;;;;;;7.70;4.53;;;17.70;82.40;;;;;;5050957;28;20025;-68
2022/10/28 00:38:36;;;;;;;4.75;3.33;;;17.60;82.50;;;;;;5050776;28;20115;-68
2022/10/28 00:41:01;;;;;;;7.68;4.03;;;17.60;82.40;;;;;;5052073;28;20567;-68
2022/10/28 00:44:20;;;;;;;7.95;4.70;;;17.60;82.60;;;;;;5051936;28;20057;-68
2022/10/28 00:46:48;;;;;;;8.57;4.50;;;17.60;82.80;;;;;;5012207;28;20041;-68
2022/10/28 00:49:28;;;;;;;9.88;4.78;;;17.60;83.10;;;;;;5051776;28;20083;-67
2022/10/28 00:52:03;;;;;;;10.00;5.13;;;17.50;83.20;;;;;;5052128;28;20074;-68
2022/10/28 00:54:30;;;;;;;7.20;4.50;;;17.50;83.20;;;;;;5051727;28;20036;-68
2022/10/28 00:56:57;;;;;;;10.15;4.05;;;17.50;83.20;;;;;;5051887;28;20052;-67
2022/10/28 00:59:31;;;;;;;7.10;4.00;;;17.60;83.30;;;;;;5051556;28;20108;-67
2022/10/28 01:01:57;;;;;;;5.80;3.70;;;17.50;83.20;;;;;;5051828;28;20112;-67
2022/10/28 01:04:23;;;;;;;8.55;4.80;;;17.60;83.20;;;;;;5051531;28;20052;-67
2022/10/28 01:06:49;;;;;;;6.07;4.10;;;17.60;83.30;;;;;;5053790;28;20052;-67
2022/10/28 01:09:15;;;;;;;9.07;5.03;;;17.60;83.30;;;;;;5053578;28;20029;-68
2022/10/28 01:11:50;;;;;;;11.20;6.70;;;17.50;83.30;;;;;;5053872;28;20374;-68
2022/10/28 01:14:24;;;;;;;10.20;5.60;;;17.50;83.40;;;;;;5051322;28;20033;-68
2022/10/28 01:17:22;;;;;;;9.85;5.82;;;17.50;83.50;;;;;;5049929;28;20506;-68
2022/10/28 01:20:25;;;;;;;6.88;4.20;;;17.40;83.80;;;;;;5050902;28;20035;-67
2022/10/28 01:23:14;;;;;;;11.00;5.03;;;17.40;84.00;;;;;;5049561;28;20036;-68
2022/10/28 01:25:56;;;;;;;8.80;5.47;;;17.40;84.00;;;;;;5050304;28;20029;-67
2022/10/28 01:28:50;;;;;;;8.30;5.18;;;17.30;84.30;;;;;;5051888;28;20067;-67
2022/10/28 01:31:32;;;;;;;6.85;4.60;;;17.40;84.40;;;;;;5051058;28;20399;-68
2022/10/28 01:34:06;;;;;;;9.13;4.53;;;17.40;84.40;;;;;;5050930;28;20151;-68
2022/10/28 01:37:09;;;;;;;7.00;3.70;;;17.30;84.30;;;;;;5051301;28;20066;-67
2022/10/28 01:40:13;;;;;;;12.02;8.05;;;17.40;84.30;;;;;;5039814;28;20041;-67
2022/10/28 01:43:08;;;;;;;10.73;6.32;;;17.40;84.30;;;;;;5031240;28;20056;-67
2022/10/28 01:45:50;;;;;;;9.73;4.93;;;17.40;84.40;;;;;;5042712;28;20094;-69
2022/10/28 01:48:26;;;;;;;6.47;4.05;;;17.40;84.40;;;;;;5051322;28;20021;-69
2022/10/28 01:50:54;;;;;;;8.13;4.10;;;17.40;84.30;;;;;;5051776;28;20028;-68
2022/10/28 01:53:25;;;;;;;7.57;3.88;;;17.30;84.30;;;;;;5051714;28;20098;-69
2022/10/28 01:55:54;;;;;;;5.53;3.58;;;17.40;84.30;;;;;;5051926;28;20020;-69
2022/10/28 01:58:26;;;;;;;6.78;3.70;;;17.40;84.20;;;;;;5050112;28;20017;-68
2022/10/28 02:00:52;;;;;;;;;;;17.40;84.00;;;;;;5052195;28;20036;-67
2022/10/28 02:03:17;;;;;;;8.63;3.70;;;17.40;83.80;;;;;;5051661;28;19905;-66
2022/10/28 02:05:47;;;;;;;6.57;4.10;;;17.40;83.90;;;;;;5050347;28;20047;-69
2022/10/28 02:08:19;;;;;;;7.22;3.95;;;17.40;83.80;;;;;;5050146;28;20070;-68
2022/10/28 02:10:50;;;;;;;8.48;3.55;;;17.40;83.90;;;;;;5050298;28;20025;-69
2022/10/28 02:13:19;;;;;;;7.82;3.88;;;17.40;83.80;;;;;;5051339;28;20062;-68
2022/10/28 02:16:07;;;;;;;7.57;3.65;;;17.40;83.80;;;;;;5050088;28;20025;-68
2022/10/28 02:18:47;;;;;;;6.32;4.25;;;17.40;83.80;;;;;;5049480;28;20033;-67
2022/10/28 02:21:35;;;;;;;5.72;3.78;;;17.30;83.80;;;;;;5048156;28;20519;-68
2022/10/28 02:24:18;;;;;;;5.18;3.60;;;17.30;83.80;;;;;;5049824;28;20096;-67
2022/10/28 02:26:55;;;;;;;7.07;3.97;;;17.30;83.80;;;;;;5050018;28;20029;-67
2022/10/28 02:29:47;;;;;;;7.65;4.15;;;17.30;83.90;;;;;;5049788;28;20036;-68
2022/10/28 02:32:18;;;;;;;9.00;4.05;;;17.30;83.90;;;;;;5049951;28;20441;-68
2022/10/28 02:34:47;;;;;;;5.87;3.20;;;17.30;83.90;;;;;;5049908;28;20471;-68
2022/10/28 02:37:18;;;;;;;7.20;3.88;;;17.30;83.80;;;;;;5049950;28;20260;-68
2022/10/28 02:39:49;;;;;;;7.65;4.15;;;17.20;83.90;;;;;;5050034;28;20383;-68
2022/10/28 02:42:28;;;;;;;5.37;3.40;;;17.20;83.90;;;;;;5049923;28;20036;-68
2022/10/28 02:45:03;;;;;;;4.90;3.35;;;17.20;83.90;;;;;;5048177;28;20272;-68
2022/10/28 02:47:33;;;;;;;7.47;3.95;;;17.30;83.90;;;;;;5049857;28;20072;-68
2022/10/28 02:50:08;;;;;;;6.45;3.35;;;17.20;83.80;;;;;;5049594;28;20644;-68
2022/10/28 02:52:35;;;;;;;6.13;3.35;;;17.30;83.90;;;;;;5052650;28;20036;-68
2022/10/28 02:55:04;;;;;;;6.57;3.88;;;17.30;83.70;;;;;;5053601;28;20009;-69
2022/10/28 02:57:36;;;;;;;9.02;4.03;;;17.30;83.70;;;;;;5053185;28;20471;-68
2022/10/28 03:00:09;;;;;;;7.00;4.57;;;17.30;83.70;;;;;;5053416;28;20029;-68
2022/10/28 03:02:35;;;;;;;8.77;4.28;;;17.30;83.70;;;;;;5053203;28;20033;-67
2022/10/28 03:05:02;;;;;;;8.05;3.58;;;17.30;83.70;;;;;;5053278;28;20021;-68
2022/10/28 03:07:28;;;;;;;8.25;3.88;;;17.30;83.50;;;;;;5053087;28;20116;-68
2022/10/28 03:09:53;;;;;;;8.13;3.85;;;17.30;83.50;;;;;;5052732;28;20113;-68
2022/10/28 03:12:19;;;;;;;5.90;3.40;;;17.30;83.40;;;;;;5051694;28;20017;-68
2022/10/28 03:14:45;;;;;;;5.15;3.22;;;17.40;83.50;;;;;;5053162;28;20056;-69
2022/10/28 03:17:10;;;;;;;7.63;3.70;;;17.30;83.30;;;;;;5053004;28;20021;-68
2022/10/28 03:19:36;;;;;;;7.95;3.28;;;17.30;83.30;;;;;;5053071;28;20025;-68
2022/10/28 03:22:01;;;;;;;6.65;3.58;;;17.30;83.30;;;;;;5052898;28;20506;-68
2022/10/28 03:24:27;;;;;;;7.75;3.45;;;17.30;83.20;;;;;;5053084;28;20025;-68
2022/10/28 03:26:52;;;;;;;6.97;3.45;;;17.30;83.20;;;;;;5052968;28;20025;-68
2022/10/28 03:29:18;;;;;;;5.88;3.90;;;17.30;83.20;;;;;;5052688;28;20037;-68
2022/10/28 03:31:44;;;;;;;7.70;3.58;;;17.30;83.10;;;;;;5053097;28;20032;-68
2022/10/28 03:34:09;;;;;;;5.20;3.45;;;17.30;83.10;;;;;;5052749;28;20384;-68
2022/10/28 03:36:35;;;;;;;7.43;3.13;;;17.30;83.10;;;;;;5052948;28;20021;-67
2022/10/28 03:39:00;;;;;;;4.90;3.35;;;17.20;83.10;;;;;;5052397;28;20047;-68
2022/10/28 03:41:26;;;;;;;7.05;3.38;;;17.20;83.10;;;;;;5052769;28;20035;-68
2022/10/28 03:43:51;;;;;;;6.35;3.50;;;17.20;83.20;;;;;;5047594;28;20025;-67
2022/10/28 03:46:17;;;;;;;5.55;3.25;;;17.20;83.20;;;;;;5051260;28;20107;-67
2022/10/28 03:48:42;;;;;;;6.38;3.40;;;17.20;83.10;;;;;;5052118;28;20112;-68
2022/10/28 03:51:08;;;;;;;5.38;3.20;;;17.20;83.10;;;;;;5052656;28;20021;-67
2022/10/28 03:53:33;;;;;;;5.28;3.17;;;17.10;83.10;;;;;;5052398;28;20036;-68
2022/10/28 03:56:00;;;;;;;8.15;3.40;;;17.10;83.10;;;;;;5052518;28;20017;-69
2022/10/28 03:58:26;;;;;;;6.90;3.10;;;17.10;83.10;;;;;;5052408;28;20387;-68
2022/10/28 04:00:53;;;;;;;6.50;3.22;;;17.10;83.20;;;;;;5052326;28;20032;-68
2022/10/28 04:03:20;;;;;;;8.23;3.67;;;17.00;83.10;;;;;;5050849;28;20028;-68
2022/10/28 04:05:49;;;;;;;5.50;3.00;;;17.00;83.10;;;;;;5052307;28;20036;-68
2022/10/28 04:08:15;;;;;;;4.93;3.00;;;17.00;83.10;;;;;;5052134;28;20180;-68
2022/10/28 04:10:42;;;;;;;5.35;2.95;;;17.00;83.10;;;;;;5052246;28;20047;-68
2022/10/28 04:13:08;;;;;;;6.85;3.20;;;16.90;83.10;;;;;;5050769;28;20033;-69
2022/10/28 04:15:33;;;;;;;6.85;3.08;;;16.90;83.00;;;;;;5052040;28;20096;-68
2022/10/28 04:17:59;;;;;;;6.28;2.97;;;16.90;83.10;;;;;;5052079;28;20127;-68
2022/10/28 04:20:25;;;;;;;5.60;3.13;;;16.90;83.10;;;;;;5051539;28;20074;-68
2022/10/28 04:22:51;;;;;;;7.45;3.25;;;16.90;83.10;;;;;;5051912;28;20037;-69
2022/10/28 04:25:16;;;;;;;6.95;3.03;;;16.80;83.00;;;;;;5051828;28;20029;-67
2022/10/28 04:27:45;;;;;;;5.65;3.42;;;16.80;83.00;;;;;;5051691;28;20391;-69
2022/10/28 04:30:11;;;;;;;7.38;3.33;;;16.80;83.00;;;;;;5051617;28;20075;-68
2022/10/28 04:32:37;;;;;;;6.50;3.60;;;16.80;83.10;;;;;;5051660;28;20059;-68
2022/10/28 04:35:03;;;;;;;7.03;3.70;;;16.80;83.10;;;;;;5051719;28;20406;-68
2022/10/28 04:37:29;;;;;;;6.82;3.50;;;16.70;83.10;;;;;;5051444;28;20499;-69
2022/10/28 04:39:54;;;;;;;7.00;3.35;;;16.70;83.10;;;;;;5051500;28;20483;-68
2022/10/28 04:42:21;;;;;;;7.97;3.13;;;16.70;83.10;;;;;;5050060;28;20079;-68
2022/10/28 04:44:47;;;;;;;4.78;2.70;;;16.70;83.10;;;;;;5051660;28;20112;-68
2022/10/28 04:47:12;;;;;;;5.82;3.05;;;16.70;82.90;;;;;;5051393;28;20048;-68
2022/10/28 04:49:38;;;;;;;5.05;2.72;;;16.80;82.90;;;;;;5051200;28;20029;-68
2022/10/28 04:52:03;;;;;;;7.50;2.85;;;16.70;82.90;;;;;;5051302;28;20356;-69
2022/10/28 04:54:29;;;;;;;6.40;3.05;;;16.70;82.80;;;;;;5051366;28;20502;-68
2022/10/28 04:56:54;;;;;;;6.22;3.10;;;16.70;82.90;;;;;;5051318;28;20091;-69
2022/10/28 04:59:20;;;;;;;5.90;2.72;;;16.70;82.90;;;;;;5050974;28;20036;-69
2022/10/28 05:01:45;;;;;;;8.30;3.00;;;16.70;82.90;;;;;;5051671;28;20025;-68
2022/10/28 05:04:11;;;;;;;7.43;3.03;;;16.70;82.90;;;;;;5050990;28;20037;-69
2022/10/28 05:06:36;;;;;;;8.27;3.03;;;16.70;82.80;;;;;;5049912;28;20524;-68
2022/10/28 05:09:02;;;;;;;8.48;3.40;;;16.70;82.80;;;;;;5050632;28;20037;-69
2022/10/28 05:11:28;;;;;;;4.82;2.72;;;16.70;82.80;;;;;;5050997;28;20032;-68
2022/10/28 05:13:54;;;;;;;6.60;3.20;;;16.70;82.80;;;;;;5048889;28;20029;-69
2022/10/28 05:16:19;;;;;;;6.40;3.20;;;16.70;82.80;;;;;;5050975;28;20096;-68
2022/10/28 05:18:45;;;;;;;6.10;2.65;;;16.70;82.80;;;;;;5050700;28;20025;-69
2022/10/28 05:21:10;;;;;;;5.13;2.78;;;16.70;82.80;;;;;;5050802;28;20438;-69
2022/10/28 05:23:36;;;;;;;4.45;2.88;;;16.60;82.70;;;;;;5049625;28;20442;-68
2022/10/28 05:26:01;;;;;;;4.53;2.63;;;16.60;82.70;;;;;;5050594;28;20028;-69
2022/10/28 05:28:27;;;;;;;6.55;2.90;;;16.60;82.70;;;;;;5050684;28;20104;-68
2022/10/28 05:30:53;;;;;;;7.00;2.95;;;16.60;82.70;;;;;;5050507;28;20052;-68
2022/10/28 05:33:18;;;;;;;6.35;2.90;;;16.60;82.70;;;;;;5050716;28;20075;-68
2022/10/28 05:35:44;;;;;;;5.63;2.60;;;16.50;82.60;;;;;;5050233;28;20072;-69
2022/10/28 05:38:09;;;;;;;4.57;2.70;;;16.50;82.70;;;;;;5050603;28;20467;-69
2022/10/28 05:40:35;;;;;;;4.85;2.75;;;16.50;82.80;;;;;;5050292;28;20037;-68
2022/10/28 05:43:01;;;;;;;4.30;2.67;;;16.50;82.90;;;;;;5050569;28;20036;-69
2022/10/28 05:45:27;;;;;;;4.57;2.97;;;16.50;83.60;;;;;;5048855;28;20515;-68
2022/10/28 05:47:53;;;;;;;6.07;3.17;;;16.50;82.90;;;;;;5048814;28;20112;-68
2022/10/28 05:50:20;;;;;;;7.55;3.20;;;16.50;83.00;;;;;;5049625;28;20112;-68
2022/10/28 05:53:03;;;;;;;6.25;2.97;;;16.40;82.90;;;;;;5048706;28;20451;-68
2022/10/28 05:55:30;;;;;;;7.13;3.17;;;16.40;82.90;;;;;;5050212;28;20099;-69
2022/10/28 05:57:55;;;;;;;6.50;3.17;;;16.40;82.90;;;;;;5048836;28;20544;-68
2022/10/28 06:00:23;;;;;;;4.85;2.67;;;16.40;82.90;;;;;;5050263;28;20033;-68
2022/10/28 06:02:49;;;;;;;7.18;3.20;;;16.40;82.90;;;;;;5048542;28;20026;-69
2022/10/28 06:05:15;;;;;;;5.55;3.00;;;16.50;82.90;;;;;;5050253;28;20037;-68
2022/10/28 06:07:41;;;;;;;7.15;3.20;;;16.40;82.80;;;;;;5050037;28;20021;-69
2022/10/28 06:10:09;;;;;;;8.75;3.50;;;16.40;82.80;;;;;;5049961;28;20041;-68
2022/10/28 06:12:34;;;;;;;5.78;2.97;;;16.40;82.90;;;;;;5050221;28;20029;-68
2022/10/28 06:15:00;;;;;;;8.70;3.58;;;16.40;82.80;;;;;;5050179;28;20028;-69
2022/10/28 06:17:25;;;;;;;10.52;3.60;;;16.40;82.80;;;;;;5049918;28;20044;-68
2022/10/28 06:19:51;;;;;;;6.28;3.35;;;16.40;82.80;;;;;;5050173;28;20033;-69
2022/10/28 06:22:17;;;;;;;5.93;3.08;;;16.50;82.80;;;;;;5049996;28;20025;-68
2022/10/28 06:24:43;;;;;;;6.90;3.78;;;16.50;82.70;;;;;;5050081;28;20025;-68
2022/10/28 06:27:08;;;;;;;6.93;3.70;;;16.50;82.70;;;;;;5054108;28;20029;-68
2022/10/28 06:29:34;;;;;;;5.15;3.10;;;16.50;82.60;;;;;;5054003;28;20099;-68
2022/10/28 06:32:00;;;;;;;7.05;3.20;;;16.50;82.60;;;;;;5054181;28;20032;-68
2022/10/28 06:34:25;;;;;;;5.22;3.05;;;16.50;82.60;;;;;;5052900;28;20141;-67
2022/10/28 06:36:51;;;;;;;5.53;2.97;;;16.50;82.60;;;;;;5054531;28;20057;-68
2022/10/28 06:39:16;;;;;;;6.90;3.38;;;16.50;82.60;;;;;;5053988;28;20017;-68
2022/10/28 06:41:42;;;;;;;6.75;2.97;;;16.50;82.50;;;;;;5054259;28;20053;-68
2022/10/28 06:44:08;;;;;;;7.35;3.17;;;16.50;82.50;;;;;;5052740;28;20032;-69
2022/10/28 06:46:34;;;;;;;6.30;3.08;;;16.60;82.50;;;;;;5054060;28;20029;-68
2022/10/28 06:49:03;;;;;;;6.32;3.05;;;16.60;82.40;;;;;;5053823;28;20074;-68
2022/10/28 06:51:29;;;;;;;5.85;3.28;;;16.60;82.30;;;;;;5053892;28;20021;-68
2022/10/28 06:53:55;;;;;;;7.47;3.28;;;16.60;82.30;;;;;;5052428;28;20112;-69
2022/10/28 06:56:21;;;;;;;9.98;3.90;;;16.60;82.20;;;;;;5053939;28;20529;-70
2022/10/28 06:58:51;;;;;;;11.20;3.85;;;16.60;82.10;;;;;;5051908;28;20025;-70
2022/10/28 07:01:16;;;;;;;7.72;3.47;;;16.70;82.20;;;;;;5053562;28;20499;-69
2022/10/28 07:03:42;;;;;;;7.50;3.53;;;16.70;82.10;;;;;;5053335;28;20021;-69
2022/10/28 07:06:08;;;;;;;9.48;3.92;;;16.70;82.00;;;;;;5051746;28;20021;-69
2022/10/28 07:08:34;;;;;;;6.65;3.50;;;16.80;82.00;;;;;;5053216;28;20033;-68
2022/10/28 07:10:59;;;;;;;7.45;3.25;;;16.80;81.80;;;;;;5052822;28;20032;-69
2022/10/28 07:13:26;;;;;;;6.80;3.30;;;16.90;81.80;;;;;;5053223;28;20029;-70
2022/10/28 07:15:56;;;;;;;6.93;3.40;;;16.90;81.60;;;;;;5053090;28;20021;-70
2022/10/28 07:18:24;;;;;;;6.57;3.35;;;17.00;81.50;;;;;;5053182;28;20526;-69
2022/10/28 07:20:49;;;;;;;8.13;3.45;;;17.00;81.40;;;;;;5052992;28;20059;-68
2022/10/28 07:23:15;;;;;;;6.20;3.33;;;17.10;81.40;;;;;;5053171;28;20495;-69
2022/10/28 07:25:41;;;;;;;6.45;3.75;;;17.10;81.20;;;;;;5051876;28;20409;-68
2022/10/28 07:28:06;;;;;;;6.68;3.83;;;17.10;81.10;;;;;;5052696;28;20029;-68
2022/10/28 07:30:32;;;;;;;9.35;4.55;;;17.20;81.10;;;;;;5051486;28;20061;-70
2022/10/28 07:32:59;;;;;;;6.95;3.78;;;17.20;80.90;;;;;;5052502;28;20021;-69
2022/10/28 07:35:26;;;;;;;8.80;3.50;;;17.20;80.80;;;;;;5053119;28;20487;-69
2022/10/28 07:37:52;;;;;;;6.53;3.17;;;17.30;80.70;;;;;;5051842;28;20025;-69
2022/10/28 07:40:19;;;;;;;9.10;3.60;;;17.40;80.60;;;;;;5053003;28;20021;-68
2022/10/28 07:42:45;;;;;;;8.32;3.35;;;17.40;80.50;;;;;;5052550;28;20115;-69
2022/10/28 07:45:10;;;;;;;9.40;3.60;;;17.50;80.40;;;;;;5052784;28;20052;-69
2022/10/28 07:47:36;;;;;;;9.02;3.58;;;17.50;80.30;;;;;;5052466;28;20017;-68
2022/10/28 07:50:02;;;;;;;7.10;3.40;;;17.60;80.20;;;;;;5052514;28;20111;-69
2022/10/28 07:52:27;;;;;;;8.55;3.40;;;17.60;80.10;;;;;;5052319;28;20024;-68
2022/10/28 07:54:53;;;;;;;11.48;3.80;;;17.70;80.10;;;;;;5051259;28;20051;-70
2022/10/28 07:57:19;;;;;;;9.05;3.70;;;17.70;80.60;;;;;;5052334;28;20585;-69
2022/10/28 07:59:44;;;;;;;7.88;3.80;;;17.80;79.90;;;;;;5052033;28;20495;-69
2022/10/28 08:02:19;;;;;;;6.88;3.30;;;17.80;79.80;;;;;;5052434;28;20029;-69
2022/10/28 08:04:45;;;;;;;7.25;3.47;;;17.80;79.70;;;;;;5052228;28;20434;-69
2022/10/28 08:07:11;;;;;;;8.77;3.85;;;17.80;79.60;;;;;;5052258;28;20021;-68
2022/10/28 08:09:37;;;;;;;9.13;3.45;;;17.90;79.60;;;;;;5049015;28;20387;-68
2022/10/28 08:12:03;;;;;;;6.10;3.10;;;17.90;79.50;;;;;;5052119;28;20013;-68
2022/10/28 08:14:29;;;;;;;7.40;3.00;;;18.00;79.40;;;;;;5051670;28;20071;-69
2022/10/28 08:16:54;;;;;;;8.18;3.60;;;18.10;79.40;;;;;;5052355;28;20029;-69
2022/10/28 08:19:20;;;;;;;9.50;3.60;;;18.10;79.20;;;;;;5051676;28;20029;-68
2022/10/28 08:21:46;;;;;;;8.90;4.05;;;18.10;79.00;;;;;;5051808;28;20100;-68
2022/10/28 08:24:11;;;;;;;7.45;3.50;;;18.20;78.90;;;;;;5051639;28;20096;-69
2022/10/28 08:26:37;;;;;;;5.93;3.22;;;18.30;78.80;;;;;;5052023;28;20027;-69
2022/10/28 08:29:02;;;;;;;10.23;4.40;;;18.30;78.70;;;;;;5051648;28;20078;-68
2022/10/28 08:31:30;;;;;;;7.65;3.45;;;18.30;78.40;;;;;;5051591;28;20032;-68
2022/10/28 08:33:55;;;;;;;8.30;4.07;;;18.40;78.50;;;;;;5051599;28;20395;-69
2022/10/28 08:36:21;;;;;;;7.55;4.10;;;18.40;78.40;;;;;;5051496;28;20096;-69
2022/10/28 08:38:46;;;;;;;9.13;3.80;;;18.50;78.20;;;;;;5051658;28;20021;-68
2022/10/28 08:41:18;;;;;;;8.25;3.63;;;18.50;78.20;;;;;;5050562;28;20056;-69
2022/10/28 08:43:52;;;;;;;7.20;3.50;;;18.50;78.20;;;;;;5051805;28;20078;-69
2022/10/28 08:46:50;;;;;;;6.03;2.92;;;18.60;78.10;;;;;;5051716;28;20028;-68
2022/10/28 08:49:20;;;;;;;7.43;3.33;;;18.60;78.00;;;;;;5048847;28;20404;-69
2022/10/28 08:51:56;;;;;;;10.25;3.70;;;18.70;78.00;;;;;;5051434;28;20021;-69
2022/10/28 08:54:28;;;;;;;8.35;4.40;;;18.70;77.80;;;;;;5051602;28;20599;-68
2022/10/28 08:56:59;;;;;;;8.10;3.90;;;18.80;77.60;;;;;;5051458;28;20027;-69
2022/10/28 08:59:31;;;;;;;7.13;3.42;;;18.90;77.50;;;;;;5051625;28;20039;-68
2022/10/28 09:01:59;;;;;;;7.80;3.53;;;18.90;77.50;;;;;;5051508;28;20032;-69
2022/10/28 09:04:45;;;;;;;9.88;4.05;;;19.00;77.40;;;;;;5051438;28;20028;-69
2022/10/28 09:07:18;;;;;;;10.32;4.70;;;19.10;77.20;;;;;;5051134;28;20029;-68
2022/10/28 09:09:46;;;;;;;6.47;4.50;;;19.10;77.00;;;;;;5051159;28;20025;-68
2022/10/28 09:12:41;;;;;;;11.23;3.95;;;19.20;77.00;;;;;;5050898;28;20025;-68
2022/10/28 09:15:33;;;;;;;8.20;4.00;;;19.20;77.00;;;;;;5051102;28;20028;-68
2022/10/28 09:18:09;;;;;;;9.48;4.43;;;19.30;76.80;;;;;;5050389;28;20120;-68
2022/10/28 09:20:54;;;;;;;7.47;4.03;;;19.40;76.80;;;;;;5049185;28;20036;-68
2022/10/28 09:23:26;;;;;;;9.05;4.60;;;19.50;76.50;;;;;;5050445;28;20102;-69
2022/10/28 09:26:07;;;;;;;9.63;4.78;;;19.60;76.10;;;;;;5050628;28;20511;-68
2022/10/28 09:28:43;;;;;;;14.55;4.93;;;19.70;75.80;;;;;;5050606;28;20029;-68
2022/10/28 09:31:29;;;;;;;14.43;5.07;;;19.90;75.40;;;;;;5045856;28;20638;-68
2022/10/28 09:34:00;;;;;;;12.38;5.28;;;19.90;74.90;;;;;;5050459;28;20475;-68
2022/10/28 09:36:52;;;;;;;12.57;4.88;;;20.00;74.40;;;;;;5049208;28;20100;-68
2022/10/28 09:39:21;;;;;;;;;;;20.00;74.30;;;;;;5050465;28;20395;-69
2022/10/28 09:41:48;;;;;;;11.50;4.72;;;20.10;74.20;;;;;;5050244;28;19905;-68
2022/10/28 09:44:50;;;;;;;11.35;4.20;;;20.10;73.70;;;;;;5050376;28;20028;-68
2022/10/28 09:47:35;;;;;;;9.00;4.05;;;20.20;73.70;;;;;;5049387;28;20503;-69
2022/10/28 09:50:04;;;;;;;15.60;5.45;;;20.30;73.60;;;;;;5050094;28;20112;-69
2022/10/28 09:52:37;;;;;;;11.50;4.40;;;20.40;73.20;;;;;;5050422;28;20024;-68
2022/10/28 09:55:14;;;;;;;12.35;5.07;;;20.40;72.80;;;;;;5050358;28;20090;-69
2022/10/28 09:57:39;;;;;;;14.13;5.22;;;20.50;72.90;;;;;;5050341;28;20066;-68
2022/10/28 10:00:06;;;;;;;11.38;5.30;;;20.50;72.30;;;;;;5049567;28;20025;-69
2022/10/28 10:02:34;;;;;;;16.75;5.70;;;20.60;72.40;;;;;;5050271;28;20025;-69
2022/10/28 10:05:01;;;;;;;9.35;4.60;;;20.60;72.20;;;;;;5050037;28;20098;-69
2022/10/28 10:07:39;;;;;;;16.10;5.20;;;20.60;72.00;;;;;;5050132;28;20074;-69
2022/10/28 10:10:13;;;;;;;12.20;5.38;;;20.60;71.80;;;;;;5049897;28;20128;-69
2022/10/28 10:12:40;;;;;;;15.13;5.45;;;20.60;71.90;;;;;;5048667;28;20598;-68
2022/10/28 10:15:10;;;;;;;11.68;4.93;;;20.60;71.80;;;;;;5050166;28;20027;-68
2022/10/28 10:17:42;;;;;;;14.25;5.38;;;20.70;72.00;;;;;;5050029;28;20041;-69
2022/10/28 10:20:19;;;;;;;7.70;3.42;;;20.80;71.70;;;;;;5049937;28;20025;-69
2022/10/28 10:22:46;;;;;;;12.20;5.20;;;20.90;71.90;;;;;;5048404;28;20040;-69
2022/10/28 10:25:18;;;;;;;10.60;4.53;;;20.90;71.40;;;;;;5049743;28;20021;-68
2022/10/28 10:28:03;;;;;;;10.75;4.68;;;21.00;71.50;;;;;;5048498;28;20033;-69
2022/10/28 10:30:36;;;;;;;10.38;4.47;;;21.00;71.30;;;;;;5049955;28;20056;-67
2022/10/28 10:33:04;;;;;;;11.65;4.50;;;21.10;71.30;;;;;;5049688;28;20403;-67
2022/10/28 10:35:33;;;;;;;8.55;4.38;;;21.10;71.10;;;;;;5049793;28;20017;-67
2022/10/28 10:38:01;;;;;;;12.45;4.97;;;21.20;70.90;;;;;;5049782;28;20025;-67
2022/10/28 10:40:32;;;;;;;12.00;5.13;;;21.20;70.90;;;;;;5050003;28;20084;-68
2022/10/28 10:43:16;;;;;;;14.73;5.35;;;21.30;70.70;;;;;;5049902;28;20545;-67
2022/10/28 10:45:51;;;;;;;11.07;4.32;;;21.20;70.50;;;;;;5048549;28;20037;-67
2022/10/28 10:48:17;;;;;;;13.13;4.80;;;21.20;70.70;;;;;;5049503;28;20033;-67
2022/10/28 10:50:45;;;;;;;11.18;4.43;;;21.30;70.80;;;;;;5049790;28;20419;-67
2022/10/28 10:53:27;;;;;;;9.35;4.43;;;21.30;70.70;;;;;;5049681;28;20025;-67
2022/10/28 10:55:54;;;;;;;10.50;4.10;;;21.40;70.80;;;;;;5048643;28;20025;-67
2022/10/28 10:58:24;;;;;;;9.18;4.03;;;21.40;70.90;;;;;;5049542;28;20044;-69
2022/10/28 11:00:52;;;;;;;14.63;5.13;;;21.50;70.70;;;;;;5049602;28;20056;-68
2022/10/28 11:03:26;;;;;;;9.98;4.20;;;21.50;70.30;;;;;;5049604;28;20565;-68
2022/10/28 11:05:57;;;;;;;9.43;4.13;;;21.50;70.40;;;;;;5049620;28;20029;-68
2022/10/28 11:08:43;;;;;;;9.55;4.20;;;21.60;70.50;;;;;;5049513;28;20106;-67
2022/10/28 11:11:20;;;;;;;10.38;4.80;;;21.70;70.30;;;;;;5047956;28;20503;-67
2022/10/28 11:13:48;;;;;;;9.85;3.70;;;21.70;69.70;;;;;;5052848;28;20029;-67
2022/10/28 11:16:21;;;;;;;9.77;3.92;;;21.80;69.50;;;;;;5053361;28;20124;-68
2022/10/28 11:18:49;;;;;;;12.32;3.78;;;21.90;69.20;;;;;;5053248;28;20021;-68
2022/10/28 11:21:46;;;;;;;13.13;4.32;;;22.00;68.80;;;;;;5053296;28;20048;-67
2022/10/28 11:24:27;;;;;;;9.45;3.47;;;22.00;68.40;;;;;;5050564;28;20036;-68
2022/10/28 11:27:10;;;;;;;12.13;4.28;;;22.10;68.40;;;;;;5053000;28;20025;-68
2022/10/28 11:29:36;;;;;;;12.55;4.30;;;22.10;67.90;;;;;;5052852;28;20063;-68
2022/10/28 11:32:19;;;;;;;10.07;4.32;;;22.10;67.40;;;;;;5052717;28;20020;-68
2022/10/28 11:35:30;;;;;;;9.65;4.10;;;22.10;67.30;;;;;;5053173;28;20035;-68
2022/10/28 11:38:04;;;;;;;13.32;4.22;;;22.10;67.00;;;;;;5051676;28;20103;-68
2022/10/28 11:41:07;;;;;;;12.40;3.90;;;22.40;67.00;;;;;;5051563;28;20136;-68
2022/10/28 11:43:56;;;;;;;9.77;3.20;;;22.50;66.50;;;;;;5052875;28;20029;-68
2022/10/28 11:46:36;;;;;;;10.43;3.90;;;22.80;66.30;;;;;;5052452;28;20450;-68
2022/10/28 11:49:23;;;;;;;9.40;4.03;;;23.20;65.10;;;;;;5052691;28;20025;-68
2022/10/28 11:52:32;;;;;;;10.57;3.95;;;23.20;64.50;;;;;;5052566;28;20066;-67
2022/10/28 11:55:20;;;;;;;11.93;3.70;;;23.00;65.10;;;;;;5046492;28;20044;-67
2022/10/28 11:58:06;;;;;;;11.82;3.75;;;22.90;65.20;;;;;;5052401;28;20024;-69
2022/10/28 12:01:09;;;;;;;9.00;3.25;;;22.90;65.40;;;;;;5052481;28;20116;-68
2022/10/28 12:03:41;;;;;;;8.75;3.42;;;22.80;65.70;;;;;;5051671;28;20044;-68
2022/10/28 12:06:33;;;;;;;8.63;3.35;;;22.90;66.00;;;;;;5052436;28;20024;-68
2022/10/28 12:09:05;;;;;;;12.65;3.83;;;23.00;65.50;;;;;;5051319;28;20048;-68
2022/10/28 12:12:03;;;;;;;7.53;3.00;;;23.00;65.30;;;;;;5052187;28;20045;-67
2022/10/28 12:14:37;;;;;;;9.07;3.60;;;23.00;65.40;;;;;;5051675;28;20106;-68
2022/10/28 12:17:14;;;;;;;12.65;4.18;;;23.00;65.20;;;;;;5050681;28;20048;-68
2022/10/28 12:19:55;;;;;;;10.98;3.20;;;22.90;64.90;;;;;;5051803;28;20068;-68
2022/10/28 12:22:29;;;;;;;12.40;3.90;;;22.90;65.20;;;;;;5050577;28;20044;-68
2022/10/28 12:25:00;;;;;;;8.32;3.80;;;22.90;65.40;;;;;;5051694;28;20658;-67
2022/10/28 12:27:33;;;;;;;10.55;3.47;;;23.00;65.30;;;;;;5052124;28;20056;-68
2022/10/28 12:30:05;;;;;;;14.95;4.55;;;23.00;65.60;;;;;;5051553;28;20036;-67
2022/10/28 12:32:34;;;;;;;9.43;3.50;;;23.00;65.20;;;;;;5050267;28;20024;-67
2022/10/28 12:35:02;;;;;;;11.43;4.00;;;23.00;65.50;;;;;;5051687;28;20017;-67
2022/10/28 12:37:37;;;;;;;10.25;3.63;;;23.00;65.20;;;;;;5051495;28;20384;-67
2022/10/28 12:40:25;;;;;;;9.77;3.83;;;23.00;65.20;;;;;;5050232;28;20025;-67
2022/10/28 12:43:15;;;;;;;7.93;3.42;;;23.10;65.10;;;;;;5051718;28;20395;-68
2022/10/28 12:45:41;;;;;;;7.78;3.00;;;23.10;65.30;;;;;;5051450;28;20074;-67
2022/10/28 12:48:28;;;;;;;9.55;3.17;;;23.10;65.10;;;;;;5051416;28;20025;-68
2022/10/28 12:51:17;;;;;;;9.30;3.00;;;23.20;65.10;;;;;;5051167;28;20067;-68
2022/10/28 12:54:02;;;;;;;7.78;2.97;;;23.20;64.90;;;;;;5051595;28;20502;-67
2022/10/28 12:56:35;;;;;;;13.50;3.67;;;23.20;64.80;;;;;;5049775;28;20060;-68
2022/10/28 12:59:31;;;;;;;6.60;2.90;;;23.20;64.40;;;;;;5051225;28;20572;-67
2022/10/28 13:01:59;;;;;;;6.43;2.47;;;23.20;64.20;;;;;;5051023;28;20023;-67
2022/10/28 13:04:27;;;;;;;10.85;3.10;;;23.20;64.10;;;;;;5051365;28;20100;-67
2022/10/28 13:07:20;;;;;;;7.43;2.97;;;23.10;64.00;;;;;;5049672;28;20057;-67
2022/10/28 13:10:18;;;;;;;8.30;2.72;;;23.20;64.10;;;;;;5044260;28;20517;-69